Terminal Aerodrome Forecast
Issued by NWS Springfield, MO

Home | Current Version | Previous Version | Text Only | Print | Product List | Glossary On
Versions: 1 2 3 4 5 6 7 8 9 10 11 12 13 14 15 16 17 18 19 20 21 22
000
FTUS43 KSGF 160200 AAA
TAFSGF
TAF AMD
KSGF 160252Z 1603/1624 27015G25KT P6SM OVC025
     FM160900 30012KT P6SM OVC015
     FM162000 31018KT P6SM SCT250=

USA.gov is the U.S. government's official web portal to all federal, state and local government web resources and services.